Blowing Rock, NC (28605)

12:31 AM EST on January 23, 2017 (GMT -0500)
Boone Fork/Blowing Rock | | Change Station

Elev 3599 ft 36.12 °N, 81.75 °W | Updated 8 minutes ago

Rain
Rain
46.9 °F
Feels Like 42 °F
N
11.0
Wind Variable Wind from SW
Gusts 19.0 mph

Today
High -- | Low -- °F
--% Chance of Precip.
Yesterday
High -- | Low -- °F
Precip. -- in
Pressure 29.29 in
Visibility 3.0 miles
Clouds Mostly Cloudy 700 ft
Overcast 1500 ft
Windchill 42 °F
Dew Point 45 °F
Humidity 92%
Rainfall 0.04 in
Snow Depth Not available.
7:33 AM 5:44 PM
Waning Crescent, 21% visible
METAR KTNB 230515Z AUTO 10007G15KT 3SM RA BKN007 OVC015 08/08 A2929 RMK AO2 LTG DSNT SW P0007 T00750075
Pressure 29.29 in
Visibility 3.0 miles
Clouds Mostly Cloudy 700 ft
Overcast 1500 ft
Windchill 42 °F
Dew Point 45 °F
Humidity 92%
Rainfall 0.04 in
Snow Depth Not available.
7:33 AM 5:44 PM
Waning Crescent, 21% visible
METAR KTNB 230515Z AUTO 10007G15KT 3SM RA BKN007 OVC015 08/08 A2929 RMK AO2 LTG DSNT SW P0007 T00750075

Get Your Daily Forecast Email!

Thanks for signing up!

Be on the lookout for a verification email in your inbox.

You'll start receiving the daily forecast at 8 AM.

×

10-Day Weather Forecast

Almanac

Astronomy

Jan. 23, 2017 Rise Set
Actual Time
Civil Twilight
Nautical Twilight
Astronomical Twilight
Moon
Length of Visible Light
Length of Day
Tomorrow will be .
, % of the Moon is Illuminated

Today's Extremes

State Highs State Lows

Community

WunderPhotos

Upload Photos

1,962,540 photos uploaded!

WunderBlog® & News

Nearby

Air Quality

  Air Quality AQ Index Pollutant
Not available.

Snow Depth

Station Depth Elevation

Earthquake Activity

City Distance Mag. Time & Date
Minimum magnitude displayed is 2.5.

Coastal Water Temperatures

Place Temperature

Stations

Nearby Weather Stations

Station Location Temp. Windchill Dew Point Humidity Wind Precip. Elev Updated Type
                   

Watches & Warnings

There are currently no watches in effect.